Time;durP1;ratioP1;P1;durP2;ratioP2;P2;SDS_P1;SDS_P2;PMS_P1;PMS_P2;Temp;Humidity;BMP_temperature;BMP_pressure;BME280_temperature;BME280_humidity;BME280_pressure;Samples;Min_cycle;Max_cycle;Signal;HPM_P1;HPM_P2
2022/01/05 00:00:32;;;;;;;6.80;3.27;;;8.20;99.90;;;;;;5073567;28;20422;-68
2022/01/05 00:02:58;;;;;;;3.70;3.50;;;8.20;99.90;;;;;;5055982;28;20935;-66
2022/01/05 00:05:24;;;;;;;3.70;3.40;;;8.00;99.90;;;;;;5059650;28;20177;-66
2022/01/05 00:07:50;;;;;;;3.20;3.00;;;8.00;99.90;;;;;;5064181;28;20539;-66
2022/01/05 00:10:15;;;;;;;3.83;2.80;;;8.00;99.90;;;;;;5074127;28;20420;-66
2022/01/05 00:12:41;;;;;;;4.97;2.60;;;7.90;99.90;;;;;;5069196;28;20431;-66
2022/01/05 00:15:08;;;;;;;3.60;2.63;;;7.80;99.90;;;;;;5073737;28;20939;-66
2022/01/05 00:17:34;;;;;;;3.53;2.73;;;7.80;99.90;;;;;;5073242;28;20169;-66
2022/01/05 00:20:00;;;;;;;2.30;2.20;;;7.80;99.90;;;;;;5059349;28;20465;-66
2022/01/05 00:22:25;;;;;;;4.30;3.07;;;7.70;99.90;;;;;;5056302;28;20215;-66
2022/01/05 00:24:51;;;;;;;3.00;2.63;;;7.70;99.90;;;;;;5072582;28;20429;-66
2022/01/05 00:27:17;;;;;;;2.47;2.33;;;7.70;99.90;;;;;;5072823;28;20207;-66
2022/01/05 00:29:43;;;;;;;4.37;2.80;;;7.70;99.90;;;;;;5072505;28;20210;-66
2022/01/05 00:32:09;;;;;;;3.13;2.90;;;7.60;99.90;;;;;;5054862;28;20798;-67
2022/01/05 00:34:36;;;;;;;7.93;3.10;;;7.60;99.90;;;;;;5072401;28;20411;-66
2022/01/05 00:37:03;;;;;;;3.10;2.70;;;7.70;99.90;;;;;;5073465;28;20429;-66
2022/01/05 00:39:29;;;;;;;5.17;2.90;;;7.70;99.90;;;;;;5072708;28;20419;-73
2022/01/05 00:41:54;;;;;;;5.40;3.37;;;7.70;99.90;;;;;;5071450;28;20418;-66
2022/01/05 00:44:20;;;;;;;3.80;3.00;;;7.60;99.90;;;;;;5073208;28;20922;-68
2022/01/05 00:46:47;;;;;;;3.73;3.20;;;7.70;99.90;;;;;;5072492;28;20209;-67
2022/01/05 00:49:13;;;;;;;5.23;3.13;;;7.80;99.90;;;;;;5071645;28;20867;-66
2022/01/05 00:51:39;;;;;;;4.33;3.47;;;7.80;99.90;;;;;;5072538;28;20762;-66
2022/01/05 00:54:06;;;;;;;3.90;3.50;;;7.80;99.90;;;;;;5054140;28;20415;-68
2022/01/05 00:56:32;;;;;;;3.80;3.17;;;7.80;99.90;;;;;;5072157;28;20195;-73
2022/01/05 00:58:58;;;;;;;3.60;3.30;;;7.80;99.90;;;;;;5071262;28;20422;-66
2022/01/05 01:01:24;;;;;;;3.50;3.30;;;7.80;99.90;;;;;;5069886;28;20415;-66
2022/01/05 01:03:50;;;;;;;3.40;3.20;;;7.80;99.90;;;;;;5070279;28;20941;-66
2022/01/05 01:06:16;;;;;;;5.23;3.17;;;7.90;99.90;;;;;;5072699;28;20506;-66
2022/01/05 01:08:42;;;;;;;3.10;2.90;;;7.90;99.90;;;;;;5072553;28;20422;-67
2022/01/05 01:11:08;;;;;;;4.00;3.40;;;7.90;99.90;;;;;;5072325;28;20430;-66
2022/01/05 01:13:34;;;;;;;3.37;3.10;;;7.90;99.90;;;;;;5072195;28;20425;-66
2022/01/05 01:15:59;;;;;;;3.17;3.07;;;8.00;99.90;;;;;;5072182;28;20918;-66
2022/01/05 01:18:25;;;;;;;3.73;3.23;;;8.00;99.90;;;;;;5071437;28;20187;-66
2022/01/05 01:20:51;;;;;;;4.07;3.67;;;8.00;99.90;;;;;;5069010;28;20173;-66
2022/01/05 01:23:21;;;;;;;5.10;3.70;;;8.10;99.90;;;;;;5072545;28;20177;-67
2022/01/05 01:25:48;;;;;;;3.50;3.20;;;8.00;99.90;;;;;;5069215;28;20954;-66
2022/01/05 01:28:13;;;;;;;3.70;3.40;;;8.00;99.90;;;;;;5068706;28;20541;-66
2022/01/05 01:30:39;;;;;;;3.57;3.27;;;8.10;99.90;;;;;;5069601;28;20510;-66
2022/01/05 01:33:06;;;;;;;4.60;4.20;;;8.10;99.90;;;;;;5071433;28;20272;-67
2022/01/05 01:35:32;;;;;;;4.60;3.80;;;8.10;99.90;;;;;;5071450;28;20172;-73
2022/01/05 01:37:58;;;;;;;4.63;4.20;;;8.20;99.90;;;;;;5072099;28;20425;-66
2022/01/05 01:40:24;;;;;;;5.50;4.90;;;8.10;99.90;;;;;;5072424;28;20407;-67
2022/01/05 01:42:50;;;;;;;6.23;4.33;;;8.10;99.90;;;;;;5070905;28;20495;-67
2022/01/05 01:45:16;;;;;;;5.47;4.97;;;8.10;99.90;;;;;;5071770;28;20314;-66
2022/01/05 01:47:42;;;;;;;8.23;5.30;;;8.10;99.90;;;;;;5070991;28;20454;-66
2022/01/05 01:50:10;;;;;;;5.70;4.57;;;8.00;99.90;;;;;;5072174;28;20436;-67
2022/01/05 01:52:36;;;;;;;6.30;5.03;;;8.00;99.90;;;;;;5070390;28;20433;-67
2022/01/05 01:55:03;;;;;;;5.30;4.83;;;8.00;99.90;;;;;;5071221;28;20837;-66
2022/01/05 01:57:32;;;;;;;5.30;4.80;;;7.90;99.90;;;;;;5071672;28;20446;-73
2022/01/05 02:00:00;;;;;;;7.07;5.23;;;7.80;99.90;;;;;;5071289;28;20492;-67
2022/01/05 02:02:26;;;;;;;5.13;4.60;;;7.80;99.90;;;;;;5072103;28;20499;-66
2022/01/05 02:04:52;;;;;;;7.57;5.60;;;7.80;99.90;;;;;;5071086;28;20522;-66
2022/01/05 02:07:17;;;;;;;6.73;6.07;;;7.90;99.90;;;;;;5070425;28;20549;-66
2022/01/05 02:09:43;;;;;;;6.73;5.30;;;7.80;99.90;;;;;;5070526;28;20922;-66
2022/01/05 02:12:10;;;;;;;8.27;6.67;;;7.80;99.90;;;;;;5069928;28;20191;-69
2022/01/05 02:14:36;;;;;;;6.57;5.60;;;7.80;99.90;;;;;;5070794;28;20415;-66
2022/01/05 02:17:07;;;;;;;8.17;7.17;;;7.80;99.90;;;;;;5071171;28;20831;-66
2022/01/05 02:19:33;;;;;;;8.83;6.90;;;7.80;99.90;;;;;;5069959;28;20168;-67
2022/01/05 02:21:59;;;;;;;8.27;6.00;;;7.70;99.90;;;;;;5071911;28;20446;-69
2022/01/05 02:24:25;;;;;;;8.83;6.70;;;7.70;99.90;;;;;;5071393;28;20407;-66
2022/01/05 02:26:50;;;;;;;8.97;6.60;;;7.70;99.90;;;;;;5070588;28;20279;-67
2022/01/05 02:29:16;;;;;;;9.70;6.60;;;7.70;99.90;;;;;;5070627;28;20183;-66
2022/01/05 02:31:42;;;;;;;7.97;6.33;;;7.70;99.90;;;;;;5066061;28;20194;-66
2022/01/05 02:34:08;;;;;;;8.63;6.07;;;7.60;99.90;;;;;;5071688;28;20267;-66
2022/01/05 02:36:33;;;;;;;8.53;7.23;;;7.60;99.90;;;;;;5070390;28;20203;-66
2022/01/05 02:38:59;;;;;;;9.80;6.87;;;7.60;99.90;;;;;;5072505;28;20511;-66
2022/01/05 02:41:25;;;;;;;8.97;6.53;;;7.60;99.90;;;;;;5072531;28;20176;-66
2022/01/05 02:43:51;;;;;;;7.57;6.83;;;7.60;99.90;;;;;;5071878;28;20210;-66
2022/01/05 02:46:19;;;;;;;10.60;7.50;;;7.70;99.90;;;;;;5072125;28;20430;-66
2022/01/05 02:48:47;;;;;;;9.57;7.73;;;7.70;99.90;;;;;;5071823;28;20416;-66
2022/01/05 02:51:12;;;;;;;11.13;8.53;;;7.70;99.90;;;;;;5072514;28;20385;-66
2022/01/05 02:53:39;;;;;;;12.50;9.13;;;7.60;99.90;;;;;;5070194;28;20518;-66
2022/01/05 02:56:05;;;;;;;11.13;9.00;;;7.70;99.90;;;;;;5070817;28;20263;-66
2022/01/05 02:58:32;;;;;;;12.63;9.60;;;7.60;99.90;;;;;;5072148;28;20505;-72
2022/01/05 03:00:57;;;;;;;17.10;10.00;;;7.50;99.90;;;;;;5071585;28;20437;-66
2022/01/05 03:03:23;;;;;;;13.20;10.10;;;7.60;99.90;;;;;;5070581;28;20775;-66
2022/01/05 03:05:49;;;;;;;17.90;9.10;;;7.60;99.90;;;;;;5070425;28;20186;-66
2022/01/05 03:08:15;;;;;;;14.60;10.13;;;7.60;99.90;;;;;;5071942;28;20208;-66
2022/01/05 03:10:41;;;;;;;16.80;10.33;;;7.60;99.90;;;;;;5070009;28;20604;-66
2022/01/05 03:13:07;;;;;;;11.73;9.87;;;7.60;99.90;;;;;;5071727;28;20425;-66
2022/01/05 03:15:35;;;;;;;11.13;9.80;;;7.60;99.90;;;;;;5071599;28;20180;-73
2022/01/05 03:18:04;;;;;;;16.07;10.70;;;7.60;99.90;;;;;;5070743;28;20176;-66
2022/01/05 03:20:31;;;;;;;15.07;10.10;;;7.50;99.90;;;;;;5070682;28;20472;-66
2022/01/05 03:22:58;;;;;;;11.83;9.47;;;7.50;99.90;;;;;;5071489;28;20417;-67
2022/01/05 03:25:24;;;;;;;16.30;10.20;;;7.50;99.90;;;;;;5071879;28;20744;-66
2022/01/05 03:27:52;;;;;;;18.67;11.17;;;7.50;99.90;;;;;;5070862;28;20586;-66
2022/01/05 03:30:25;;;;;;;18.00;9.47;;;7.50;99.90;;;;;;5072043;28;20422;-66
2022/01/05 03:35:23;;;;;;;21.47;10.87;;;7.40;99.90;;;;;;5071558;28;20790;-67
2022/01/05 03:37:48;;;;;;;11.73;10.37;;;7.40;99.90;;;;;;5069609;28;20434;-67
2022/01/05 03:40:14;;;;;;;16.17;10.40;;;7.40;99.90;;;;;;5071613;28;20176;-65
2022/01/05 03:42:40;;;;;;;13.80;10.70;;;7.40;99.90;;;;;;5069421;28;20584;-66
2022/01/05 03:45:06;;;;;;;14.50;10.00;;;7.40;99.90;;;;;;5069717;28;20268;-68
2022/01/05 03:47:32;;;;;;;14.60;11.43;;;7.30;99.90;;;;;;5069266;28;20594;-65
2022/01/05 03:49:57;;;;;;;15.10;10.50;;;7.30;99.90;;;;;;5071090;28;20516;-66
2022/01/05 03:52:23;;;;;;;15.20;10.90;;;7.30;99.90;;;;;;5070704;28;20619;-65
2022/01/05 03:54:49;;;;;;;11.93;9.97;;;7.20;99.90;;;;;;5070796;28;20201;-66
2022/01/05 03:57:15;;;;;;;14.33;11.23;;;7.30;99.90;;;;;;5071534;28;20180;-66
2022/01/05 03:59:40;;;;;;;11.73;9.60;;;7.30;99.90;;;;;;5070553;28;20176;-69
2022/01/05 04:02:06;;;;;;;20.67;10.17;;;7.30;99.90;;;;;;5071747;28;20236;-66
2022/01/05 04:04:32;;;;;;;14.97;9.47;;;7.20;99.90;;;;;;5071598;28;20263;-65
2022/01/05 04:06:58;;;;;;;11.20;9.10;;;7.10;99.90;;;;;;5070339;28;21060;-66
2022/01/05 04:09:23;;;;;;;10.10;9.10;;;7.10;99.90;;;;;;5071348;28;20299;-65
2022/01/05 04:11:49;;;;;;;10.90;8.43;;;7.00;99.90;;;;;;5070058;28;20184;-65
2022/01/05 04:14:15;;;;;;;11.20;7.83;;;6.90;99.90;;;;;;5071550;28;20243;-65
2022/01/05 04:16:40;;;;;;;11.30;8.20;;;6.90;99.90;;;;;;5070756;28;20183;-65
2022/01/05 04:19:06;;;;;;;9.47;7.07;;;6.80;99.90;;;;;;5074944;28;20178;-65
2022/01/05 04:21:32;;;;;;;8.30;7.47;;;6.80;99.90;;;;;;5074909;28;20194;-65
2022/01/05 04:23:57;;;;;;;11.90;6.60;;;6.80;99.90;;;;;;5073977;28;20564;-65
2022/01/05 04:26:23;;;;;;;13.70;6.43;;;6.70;99.90;;;;;;5073733;28;20179;-65
2022/01/05 04:28:49;;;;;;;6.73;5.17;;;6.70;99.90;;;;;;5073971;28;20178;-65
2022/01/05 04:31:15;;;;;;;9.53;6.10;;;6.70;99.90;;;;;;5074634;28;20530;-66
2022/01/05 04:33:41;;;;;;;6.20;5.60;;;6.70;99.90;;;;;;5074215;28;20237;-66
2022/01/05 04:36:07;;;;;;;9.63;5.60;;;6.70;99.90;;;;;;5073837;28;20828;-66
2022/01/05 04:38:33;;;;;;;9.83;5.70;;;6.60;99.90;;;;;;5074153;28;20406;-65
2022/01/05 04:40:59;;;;;;;9.50;7.90;;;6.80;99.90;;;;;;5074089;28;21210;-66
2022/01/05 04:43:25;;;;;;;8.50;5.20;;;6.60;99.90;;;;;;5073735;28;20417;-65
2022/01/05 04:45:51;;;;;;;7.90;5.57;;;6.70;99.90;;;;;;5073484;28;20219;-65
2022/01/05 04:48:17;;;;;;;7.97;5.70;;;6.70;99.90;;;;;;5072505;28;20428;-66
2022/01/05 04:50:43;;;;;;;8.53;7.63;;;6.70;99.90;;;;;;5073671;28;20983;-66
2022/01/05 04:53:11;;;;;;;10.80;5.73;;;6.70;99.90;;;;;;5074176;28;20183;-65
2022/01/05 04:55:39;;;;;;;6.80;5.97;;;6.80;99.90;;;;;;5056505;28;20175;-71
2022/01/05 04:58:04;;;;;;;7.97;5.60;;;6.70;99.90;;;;;;5071164;28;20947;-66
2022/01/05 05:00:30;;;;;;;5.20;4.70;;;6.60;99.90;;;;;;5068402;28;20927;-66
2022/01/05 05:02:56;;;;;;;7.20;4.77;;;6.30;99.90;;;;;;5074059;28;20966;-65
2022/01/05 05:05:21;;;;;;;10.40;4.70;;;6.60;99.90;;;;;;5074505;28;20190;-66
2022/01/05 05:07:47;;;;;;;8.90;6.40;;;6.50;99.90;;;;;;5072337;28;20272;-66
2022/01/05 05:10:13;;;;;;;4.97;4.30;;;6.50;99.90;;;;;;5073364;28;20274;-66
2022/01/05 05:12:39;;;;;;;7.23;4.80;;;6.50;99.90;;;;;;5072716;28;20192;-72
2022/01/05 05:15:05;;;;;;;9.07;5.10;;;6.50;99.90;;;;;;5074293;28;20692;-65
2022/01/05 05:17:31;;;;;;;6.33;3.67;;;6.40;99.90;;;;;;5073992;28;20416;-65
2022/01/05 05:19:57;;;;;;;5.83;3.93;;;6.00;99.90;;;;;;5072659;28;20413;-66
2022/01/05 05:22:22;;;;;;;6.70;6.07;;;6.50;99.90;;;;;;5072810;28;20219;-65
2022/01/05 05:24:48;;;;;;;5.63;3.30;;;6.50;99.90;;;;;;5073262;28;20179;-66
2022/01/05 05:27:14;;;;;;;10.53;4.00;;;6.50;99.80;;;;;;5055859;28;20226;-65
2022/01/05 05:29:40;;;;;;;5.13;3.33;;;6.40;99.90;;;;;;5052601;28;20522;-71
2022/01/05 05:32:06;;;;;;;4.40;4.00;;;6.40;99.70;;;;;;5051771;28;20443;-65
2022/01/05 05:34:32;;;;;;;9.60;4.67;;;6.40;99.60;;;;;;5052843;28;20274;-66
2022/01/05 05:36:57;;;;;;;6.73;3.03;;;6.50;99.40;;;;;;5052952;28;20449;-66
2022/01/05 05:39:23;;;;;;;7.13;2.50;;;6.40;99.20;;;;;;5052638;28;20650;-66
2022/01/05 05:41:49;;;;;;;5.53;3.10;;;6.40;99.50;;;;;;5052873;28;20172;-66
2022/01/05 05:44:15;;;;;;;3.73;2.97;;;6.40;99.20;;;;;;5060749;28;20430;-66
2022/01/05 05:46:41;;;;;;;4.43;3.50;;;6.40;99.10;;;;;;5071471;28;20211;-72
2022/01/05 05:49:06;;;;;;;6.30;2.77;;;6.40;99.20;;;;;;5072980;28;20458;-66
2022/01/05 05:51:32;;;;;;;4.97;4.40;;;6.40;99.30;;;;;;5060928;28;20179;-65
2022/01/05 05:53:58;;;;;;;5.50;5.00;;;6.40;99.50;;;;;;5052489;28;20630;-66
2022/01/05 05:56:23;;;;;;;5.30;2.60;;;6.40;99.50;;;;;;5052347;28;20182;-66
2022/01/05 05:58:49;;;;;;;5.27;2.30;;;6.30;99.00;;;;;;5052572;28;20202;-69
2022/01/05 06:01:15;;;;;;;6.90;3.33;;;6.30;99.20;;;;;;5054290;28;20186;-66
2022/01/05 06:03:41;;;;;;;4.93;2.72;;;6.30;99.30;;;;;;5053166;28;20209;-72
2022/01/05 06:06:07;;;;;;;5.60;5.00;;;6.30;99.40;;;;;;5052549;28;20228;-65
2022/01/05 06:08:32;;;;;;;6.37;4.67;;;6.30;99.50;;;;;;5053237;28;20643;-65
2022/01/05 06:10:58;;;;;;;10.00;3.70;;;6.30;99.70;;;;;;5059795;28;20635;-65
2022/01/05 06:13:24;;;;;;;6.53;3.87;;;6.40;99.30;;;;;;5073374;28;20181;-65
2022/01/05 06:15:49;;;;;;;6.23;4.23;;;6.30;99.00;;;;;;5071253;28;20225;-66
2022/01/05 06:18:15;;;;;;;4.53;3.47;;;6.30;99.00;;;;;;5072766;28;20653;-65
2022/01/05 06:20:41;;;;;;;8.20;3.67;;;6.30;99.00;;;;;;5073019;28;20177;-69
2022/01/05 06:23:07;;;;;;;8.73;4.47;;;6.40;98.70;;;;;;5072329;28;20629;-65
2022/01/05 06:25:32;;;;;;;9.33;4.50;;;5.90;98.90;;;;;;5072542;28;20297;-66
2022/01/05 06:27:58;;;;;;;6.20;4.40;;;6.40;99.10;;;;;;5071667;28;20677;-66
2022/01/05 06:30:24;;;;;;;7.23;5.23;;;6.30;99.00;;;;;;5072863;28;20416;-66
2022/01/05 06:32:49;;;;;;;5.13;3.87;;;6.40;98.90;;;;;;5070822;28;20631;-67
2022/01/05 06:35:18;;;;;;;4.60;3.50;;;6.40;98.70;;;;;;5071436;28;20182;-66
2022/01/05 06:37:43;;;;;;;5.00;4.45;;;6.40;98.80;;;;;;5072155;28;20264;-74
2022/01/05 06:40:09;;;;;;;7.97;5.37;;;6.40;98.80;;;;;;5070365;28;20178;-69
2022/01/05 06:42:35;;;;;;;6.43;4.90;;;8.30;99.90;;;;;;5061578;28;20177;-69
2022/01/05 06:45:01;;;;;;;4.83;4.00;;;10.10;99.90;;;;;;5052138;28;20408;-70
2022/01/05 06:47:26;;;;;;;8.83;3.27;;;11.40;99.90;;;;;;5052999;28;20626;-70
2022/01/05 06:49:52;;;;;;;4.97;3.20;;;12.30;96.50;;;;;;5053249;28;20178;-70
2022/01/05 06:52:18;;;;;;;4.03;3.33;;;13.10;93.70;;;;;;5051729;28;20634;-70
2022/01/05 06:54:44;;;;;;;4.33;3.40;;;13.80;90.70;;;;;;5052148;28;20256;-75
2022/01/05 06:57:10;;;;;;;6.83;3.80;;;14.20;87.50;;;;;;5053157;28;20622;-70
2022/01/05 06:59:36;;;;;;;5.20;4.50;;;14.60;84.90;;;;;;5052792;28;20189;-70
2022/01/05 07:02:03;;;;;;;7.50;4.37;;;14.90;80.40;;;;;;5052126;28;20881;-66
2022/01/05 07:04:29;;;;;;;5.57;3.87;;;15.00;73.20;;;;;;5051456;28;20781;-66
2022/01/05 07:06:55;;;;;;;6.00;4.50;;;14.40;68.60;;;;;;5052284;28;20449;-66
2022/01/05 07:09:20;;;;;;;7.80;5.03;;;13.20;69.50;;;;;;5052246;28;20244;-66
2022/01/05 07:11:46;;;;;;;7.27;4.77;;;12.50;71.80;;;;;;5051535;28;20732;-66
2022/01/05 07:14:12;;;;;;;8.73;4.70;;;11.80;74.20;;;;;;5052621;28;20271;-66
2022/01/05 07:16:37;;;;;;;7.00;5.47;;;10.90;76.90;;;;;;5052550;28;20175;-66
2022/01/05 07:19:03;;;;;;;6.33;5.77;;;10.30;80.80;;;;;;5054887;28;20175;-66
2022/01/05 07:21:33;;;;;;;5.57;5.17;;;9.80;84.90;;;;;;5069821;28;20179;-66
2022/01/05 07:24:00;;;;;;;6.33;4.90;;;9.40;88.20;;;;;;5059709;28;20569;-66
2022/01/05 07:26:27;;;;;;;9.60;4.27;;;9.00;90.50;;;;;;5070741;28;20407;-66
2022/01/05 07:28:53;;;;;;;5.80;4.73;;;8.60;91.40;;;;;;5070885;28;20458;-66
2022/01/05 07:31:19;;;;;;;8.30;5.30;;;8.40;92.50;;;;;;5070688;28;20422;-66
2022/01/05 07:33:45;;;;;;;11.53;5.23;;;8.10;93.20;;;;;;5070506;28;20415;-66
2022/01/05 07:36:11;;;;;;;9.00;4.73;;;7.90;93.90;;;;;;5059365;28;20176;-66
2022/01/05 07:38:37;;;;;;;7.90;5.10;;;7.70;94.40;;;;;;5063956;28;20171;-66
2022/01/05 07:41:03;;;;;;;8.30;5.50;;;7.60;94.90;;;;;;5060918;28;20422;-66
2022/01/05 07:43:29;;;;;;;7.60;4.70;;;7.50;95.70;;;;;;5067737;28;20186;-66
2022/01/05 07:45:54;;;;;;;5.60;4.53;;;7.30;95.90;;;;;;5070468;28;20461;-67
2022/01/05 07:48:20;;;;;;;13.20;5.10;;;7.20;96.70;;;;;;5071845;28;20278;-68
2022/01/05 07:50:46;;;;;;;8.60;5.27;;;7.10;96.90;;;;;;5066900;28;20662;-75
2022/01/05 07:53:12;;;;;;;7.90;4.93;;;6.90;97.20;;;;;;5073633;28;20403;-68
2022/01/05 07:55:38;;;;;;;9.27;5.40;;;6.90;98.90;;;;;;5071150;28;20492;-70
2022/01/05 07:58:04;;;;;;;10.53;6.00;;;6.80;98.00;;;;;;5075332;28;20260;-69
2022/01/05 08:00:31;;;;;;;14.00;4.83;;;6.80;99.00;;;;;;5071242;28;20184;-68
2022/01/05 08:02:56;;;;;;;6.90;4.80;;;6.80;98.90;;;;;;5066504;28;20186;-69
2022/01/05 08:05:22;;;;;;;11.00;4.83;;;6.80;98.80;;;;;;5069446;28;20726;-70
2022/01/05 08:07:48;;;;;;;7.73;5.00;;;6.80;99.20;;;;;;5069604;28;20209;-73
2022/01/05 08:10:14;;;;;;;9.60;5.07;;;6.80;98.60;;;;;;5056404;28;20500;-69
2022/01/05 08:12:41;;;;;;;9.40;4.90;;;6.70;98.60;;;;;;5064532;28;20464;-69
2022/01/05 08:15:09;;;;;;;14.73;5.30;;;6.70;99.30;;;;;;5063630;28;20713;-69
2022/01/05 08:17:35;;;;;;;9.47;5.60;;;6.70;99.10;;;;;;5083033;28;20430;-68
2022/01/05 08:20:01;;;;;;;10.03;5.00;;;6.60;99.10;;;;;;5087999;28;20421;-68
2022/01/05 08:22:27;;;;;;;11.93;6.13;;;6.50;99.30;;;;;;5070066;28;20438;-68
2022/01/05 08:24:53;;;;;;;11.77;5.30;;;6.50;99.50;;;;;;5063665;28;20498;-68
2022/01/05 08:27:18;;;;;;;8.33;5.97;;;6.50;99.80;;;;;;5048235;28;20205;-69
2022/01/05 08:29:44;;;;;;;13.10;6.40;;;6.50;99.90;;;;;;5070274;28;20180;-68
2022/01/05 08:32:10;;;;;;;8.90;4.90;;;6.10;99.90;;;;;;5068912;28;20188;-68
2022/01/05 08:34:36;;;;;;;8.53;4.60;;;6.40;99.90;;;;;;5054984;28;20210;-68
2022/01/05 08:37:02;;;;;;;6.17;4.93;;;6.30;99.90;;;;;;5053716;28;20217;-69
2022/01/05 08:39:27;;;;;;;9.77;5.20;;;6.30;99.90;;;;;;5069989;28;20178;-68
2022/01/05 08:41:53;;;;;;;12.93;5.10;;;6.20;99.90;;;;;;5073909;28;20394;-72
2022/01/05 08:44:19;;;;;;;8.60;5.73;;;6.20;99.90;;;;;;5073426;28;20189;-69
2022/01/05 08:46:45;;;;;;;7.00;5.47;;;6.30;99.90;;;;;;5073880;28;20223;-68
2022/01/05 08:49:11;;;;;;;6.30;5.47;;;6.20;99.90;;;;;;5072748;28;20423;-70
2022/01/05 08:51:38;;;;;;;8.27;4.80;;;6.20;99.90;;;;;;5070785;28;20416;-68
2022/01/05 08:54:05;;;;;;;9.35;5.38;;;6.20;99.90;;;;;;5071828;28;20446;-69
2022/01/05 08:56:32;;;;;;;7.90;5.47;;;6.30;99.90;;;;;;5074308;28;20182;-69
2022/01/05 08:58:57;;;;;;;7.10;4.90;;;6.30;99.90;;;;;;5072451;28;20501;-68
2022/01/05 09:01:25;;;;;;;9.23;5.50;;;6.40;99.90;;;;;;5074744;28;20492;-69
2022/01/05 09:03:52;;;;;;;9.10;6.10;;;6.40;99.90;;;;;;5072951;28;20180;-72
2022/01/05 09:06:18;;;;;;;11.43;5.67;;;6.30;99.90;;;;;;5074773;28;20440;-68
2022/01/05 09:08:44;;;;;;;13.70;5.30;;;6.30;99.90;;;;;;5074692;28;20465;-69
2022/01/05 09:11:10;;;;;;;10.40;5.93;;;6.40;99.90;;;;;;5073935;28;21034;-68
2022/01/05 09:13:36;;;;;;;10.93;5.70;;;6.40;99.90;;;;;;5073439;28;20224;-69
2022/01/05 09:16:02;;;;;;;10.33;5.10;;;6.40;99.90;;;;;;5074132;28;20409;-70
2022/01/05 09:18:29;;;;;;;8.90;6.10;;;6.50;99.90;;;;;;5074636;28;20407;-70
2022/01/05 09:20:54;;;;;;;6.43;4.70;;;6.50;99.90;;;;;;5073773;28;20806;-70
2022/01/05 09:23:20;;;;;;;5.70;5.20;;;6.50;99.90;;;;;;5074523;28;20257;-70
2022/01/05 09:25:46;;;;;;;9.83;5.83;;;6.50;99.90;;;;;;5074481;28;20181;-70
2022/01/05 09:28:12;;;;;;;9.37;6.07;;;6.50;99.90;;;;;;5073815;28;20610;-70
2022/01/05 09:30:37;;;;;;;8.27;5.80;;;6.50;99.90;;;;;;5074716;28;20236;-69
2022/01/05 09:33:04;;;;;;;8.70;5.70;;;6.50;99.90;;;;;;5055793;28;20387;-70
2022/01/05 09:35:30;;;;;;;7.97;6.43;;;6.50;99.90;;;;;;5074034;28;20165;-70
2022/01/05 09:43:12;;;;;;;6.60;5.93;;;6.50;99.90;;;;;;5069153;28;21035;-69
2022/01/05 09:46:02;;;;;;;7.77;6.83;;;6.50;99.90;;;;;;5059162;28;20474;-69
2022/01/05 09:48:37;;;;;;;8.60;6.47;;;6.50;99.90;;;;;;5060924;28;20475;-69
2022/01/05 09:51:06;;;;;;;11.40;6.70;;;6.50;99.90;;;;;;5057851;28;20428;-69
2022/01/05 09:53:34;;;;;;;10.87;6.37;;;6.40;99.90;;;;;;5070210;28;20504;-70
2022/01/05 09:56:00;;;;;;;12.47;7.40;;;6.50;99.90;;;;;;5072257;28;20428;-70
2022/01/05 09:58:28;;;;;;;226.17;111.77;;;6.40;99.90;;;;;;5071837;28;20435;-69
2022/01/05 10:00:53;;;;;;;18.47;13.03;;;6.50;99.90;;;;;;5072602;28;20421;-77
2022/01/05 10:03:21;;;;;;;6.90;6.30;;;6.50;99.90;;;;;;5072463;28;20388;-70
2022/01/05 10:05:53;;;;;;;8.73;5.97;;;6.50;99.90;;;;;;5073190;28;20424;-69
2022/01/05 10:08:19;;;;;;;7.65;5.65;;;6.00;99.90;;;;;;5072317;28;20441;-72
2022/01/05 10:10:45;;;;;;;9.27;6.33;;;6.40;99.90;;;;;;5073033;28;20193;-70
2022/01/05 10:13:11;;;;;;;13.13;7.20;;;6.40;99.90;;;;;;5071900;28;20181;-71
2022/01/05 10:15:37;;;;;;;7.00;5.97;;;6.40;99.90;;;;;;5071065;28;20431;-70
2022/01/05 10:18:15;;;;;;;11.17;7.20;;;6.40;99.90;;;;;;5069519;28;20179;-70
2022/01/05 10:21:00;;;;;;;12.93;6.90;;;6.40;99.90;;;;;;5070824;28;20799;-70
2022/01/05 10:23:33;;;;;;;12.20;6.57;;;6.20;99.90;;;;;;5067645;28;20413;-70
2022/01/05 10:26:33;;;;;;;16.63;6.68;;;6.40;99.90;;;;;;5071813;28;20200;-70
2022/01/05 10:29:04;;;;;;;11.18;6.18;;;6.30;99.90;;;;;;5068982;28;20655;-70
2022/01/05 10:31:38;;;;;;;7.90;5.90;;;6.30;99.90;;;;;;5071361;28;20560;-72
2022/01/05 10:34:20;;;;;;;9.07;6.13;;;6.50;99.90;;;;;;5067615;28;20424;-71
2022/01/05 10:36:51;;;;;;;6.90;5.93;;;6.30;99.90;;;;;;5068619;28;20420;-72
2022/01/05 10:39:28;;;;;;;7.47;5.33;;;6.20;99.90;;;;;;5067250;28;20413;-73
2022/01/05 10:41:54;;;;;;;7.93;5.47;;;6.20;99.90;;;;;;5061540;28;20394;-83
2022/01/05 10:44:22;;;;;;;8.57;6.07;;;6.20;99.90;;;;;;5070277;28;20432;-68
2022/01/05 10:46:57;;;;;;;7.68;6.45;;;6.20;99.90;;;;;;5067419;28;20224;-69
2022/01/05 10:49:38;;;;;;;6.00;5.40;;;6.30;99.90;;;;;;5070186;28;20188;-68
2022/01/05 10:52:22;;;;;;;9.82;6.22;;;6.20;99.90;;;;;;5067120;28;20172;-68
2022/01/05 10:54:48;;;;;;;8.23;5.53;;;6.30;99.90;;;;;;5072112;28;20182;-69
2022/01/05 10:57:15;;;;;;;6.20;5.60;;;6.10;99.90;;;;;;5070239;28;20225;-68
2022/01/05 10:59:46;;;;;;;438.20;248.68;;;6.20;99.90;;;;;;5069825;28;20424;-70
2022/01/05 11:02:31;;;;;;;15.85;8.23;;;6.30;99.90;;;;;;5070180;28;20514;-69
2022/01/05 11:05:17;;;;;;;5.43;5.03;;;6.30;99.90;;;;;;5070732;28;20165;-69
2022/01/05 11:07:46;;;;;;;10.37;6.53;;;6.30;99.90;;;;;;5069533;28;20468;-68
2022/01/05 11:10:18;;;;;;;8.87;6.43;;;6.30;99.90;;;;;;5070191;28;20788;-68
2022/01/05 11:12:54;;;;;;;10.00;6.77;;;6.50;99.90;;;;;;5072045;28;20424;-69
2022/01/05 11:15:31;;;;;;;7.13;6.40;;;6.40;99.90;;;;;;5065654;28;21220;-69
2022/01/05 11:18:18;;;;;;;8.17;6.43;;;6.40;99.90;;;;;;5071853;28;20427;-75
2022/01/05 11:20:57;;;;;;;5.40;4.47;;;6.60;99.90;;;;;;5071862;28;20452;-68
2022/01/05 11:23:25;;;;;;;7.33;4.40;;;6.50;99.90;;;;;;5071893;28;20391;-69
2022/01/05 11:25:52;;;;;;;6.57;5.90;;;6.40;99.90;;;;;;5070186;28;20424;-69
2022/01/05 11:28:20;;;;;;;5.93;5.20;;;6.50;99.90;;;;;;5070495;28;20456;-69
2022/01/05 11:30:48;;;;;;;5.20;4.80;;;6.40;99.90;;;;;;5070133;28;20420;-69
2022/01/05 11:33:14;;;;;;;7.73;6.13;;;6.40;99.90;;;;;;5069166;28;20429;-69
2022/01/05 11:35:41;;;;;;;7.20;6.28;;;6.30;99.90;;;;;;5064644;28;20462;-70
2022/01/05 11:38:08;;;;;;;7.27;4.40;;;6.20;99.90;;;;;;5066278;28;20264;-68
2022/01/05 11:40:36;;;;;;;7.13;4.83;;;6.20;99.90;;;;;;5068140;28;20415;-69
2022/01/05 11:43:05;;;;;;;8.13;5.57;;;6.10;99.90;;;;;;5058686;28;20987;-68
2022/01/05 11:45:45;;;;;;;6.75;5.18;;;6.10;99.90;;;;;;5069178;28;20929;-69
2022/01/05 11:48:28;;;;;;;4.40;4.00;;;6.10;99.90;;;;;;5065875;28;20229;-69
2022/01/05 11:51:02;;;;;;;9.32;6.65;;;6.10;99.90;;;;;;5069094;28;20432;-69
2022/01/05 11:53:41;;;;;;;8.30;4.80;;;6.10;99.90;;;;;;5064512;28;20600;-68
2022/01/05 11:56:13;;;;;;;7.32;6.80;;;6.10;99.90;;;;;;5068859;28;20186;-68
2022/01/05 11:58:54;;;;;;;6.10;5.70;;;6.10;99.90;;;;;;5069725;28;20180;-69
2022/01/05 12:01:20;;;;;;;5.20;4.70;;;6.10;99.90;;;;;;5066467;28;20532;-69
2022/01/05 12:03:57;;;;;;;7.30;5.40;;;6.10;99.90;;;;;;5071629;28;20923;-68
2022/01/05 12:06:43;;;;;;;5.90;4.70;;;6.10;99.90;;;;;;5069583;28;20405;-69
2022/01/05 12:09:25;;;;;;;7.78;4.50;;;6.20;99.90;;;;;;5056757;28;20444;-69
2022/01/05 12:11:50;;;;;;;6.00;4.53;;;6.20;99.90;;;;;;5049517;28;20543;-70
2022/01/05 12:14:22;;;;;;;6.73;4.23;;;6.20;99.90;;;;;;5049355;28;20425;-69
2022/01/05 12:17:03;;;;;;;9.68;4.40;;;6.10;99.90;;;;;;5051532;28;20739;-67
2022/01/05 12:19:34;;;;;;;5.35;4.72;;;6.20;99.90;;;;;;5054968;28;20162;-68
2022/01/05 12:22:03;;;;;;;30.65;18.70;;;6.10;99.90;;;;;;5051840;28;20184;-69
2022/01/05 12:25:00;;;;;;;118.97;54.13;;;6.10;99.90;;;;;;5052051;28;20172;-68
2022/01/05 12:27:32;;;;;;;9.60;6.20;;;6.20;99.90;;;;;;5051521;28;20452;-68
2022/01/05 12:30:21;;;;;;;6.20;5.50;;;6.20;99.90;;;;;;5066621;28;20402;-76
2022/01/05 12:33:12;;;;;;;5.43;4.93;;;6.30;99.90;;;;;;5068284;28;20446;-69
2022/01/05 12:35:53;;;;;;;6.10;4.87;;;6.30;99.90;;;;;;5054574;28;20942;-69
2022/01/05 12:38:33;;;;;;;7.30;4.50;;;6.40;99.90;;;;;;5069090;28;20423;-68
2022/01/05 12:41:19;;;;;;;6.60;5.40;;;6.10;99.90;;;;;;5072114;28;20470;-71
2022/01/05 12:43:45;;;;;;;7.20;5.50;;;6.30;99.90;;;;;;5070976;28;20680;-68
2022/01/05 12:46:13;;;;;;;5.28;4.82;;;6.30;99.90;;;;;;5073019;28;20442;-69
2022/01/05 12:48:43;;;;;;;5.20;4.70;;;6.40;99.90;;;;;;5072904;28;20532;-68
2022/01/05 12:51:12;;;;;;;6.47;5.10;;;6.10;99.90;;;;;;5073478;28;20236;-68
2022/01/05 12:53:50;;;;;;;6.27;5.10;;;6.40;99.90;;;;;;5072039;28;20428;-71
2022/01/05 12:56:20;;;;;;;8.67;5.20;;;6.40;99.90;;;;;;5072590;28;20394;-69
2022/01/05 12:58:51;;;;;;;6.95;4.43;;;6.10;99.90;;;;;;5072735;28;20424;-68
2022/01/05 13:01:21;;;;;;;7.40;5.10;;;6.50;99.90;;;;;;5055341;28;20260;-68
2022/01/05 13:03:47;;;;;;;6.00;4.90;;;6.50;99.90;;;;;;5072516;28;20431;-69